createdAt,value
2022-09-25T00:00:42.225Z,11.9
2022-09-25T00:01:58.516Z,12.4
2022-09-25T00:03:14.820Z,12.1
2022-09-25T00:04:31.109Z,12.7
2022-09-25T00:05:47.390Z,12.5
2022-09-25T00:07:03.688Z,13.2
2022-09-25T00:08:19.994Z,12.9
2022-09-25T00:09:36.282Z,13.2
2022-09-25T00:10:52.567Z,12.2
2022-09-25T00:12:08.853Z,12
2022-09-25T00:13:25.156Z,12.8
2022-09-25T00:14:41.455Z,12.7
2022-09-25T00:15:57.741Z,12.1
2022-09-25T00:17:13.061Z,12.3
2022-09-25T00:18:29.337Z,12.2
2022-09-25T00:19:45.639Z,11.8
2022-09-25T00:21:01.929Z,12.3
2022-09-25T00:22:18.228Z,11.8
2022-09-25T00:23:34.521Z,11.8
2022-09-25T00:24:49.828Z,11.5
2022-09-25T00:26:06.132Z,12.1
2022-09-25T00:27:22.421Z,11.8
2022-09-25T00:28:38.729Z,11.7
2022-09-25T00:29:55.001Z,11.6
2022-09-25T00:31:11.308Z,12
2022-09-25T00:32:27.594Z,11.7
2022-09-25T00:33:43.880Z,12
2022-09-25T00:35:00.189Z,11.2
2022-09-25T00:36:16.486Z,12.4
2022-09-25T00:37:32.779Z,11.9
2022-09-25T00:38:49.052Z,11.9
2022-09-25T00:40:05.352Z,11.5
2022-09-25T00:41:20.671Z,11.5
2022-09-25T00:42:36.953Z,11
2022-09-25T00:43:53.259Z,11.1
2022-09-25T00:45:09.541Z,11.3
2022-09-25T00:46:25.856Z,11.1
2022-09-25T00:47:42.135Z,11.3
2022-09-25T00:48:58.438Z,11.5
2022-09-25T00:50:14.728Z,10.8
2022-09-25T00:51:31.004Z,12
2022-09-25T00:52:47.307Z,11.4
2022-09-25T00:54:03.599Z,11.4
2022-09-25T00:55:19.894Z,11.2
2022-09-25T00:56:36.181Z,11.5
2022-09-25T00:57:51.496Z,11.4
2022-09-25T00:59:07.790Z,11.6
2022-09-25T01:00:24.096Z,11.3
2022-09-25T01:01:40.369Z,10.8
2022-09-25T01:02:56.676Z,11.3
2022-09-25T01:04:12.969Z,11
2022-09-25T01:05:29.257Z,10.6
2022-09-25T01:06:45.571Z,11.9
2022-09-25T01:08:01.849Z,11.6
2022-09-25T01:09:18.167Z,12.2
2022-09-25T01:10:34.442Z,10.9
2022-09-25T01:11:50.737Z,11.6
2022-09-25T01:13:07.020Z,10.9
2022-09-25T01:14:22.345Z,11.3
2022-09-25T01:15:38.628Z,11.8
2022-09-25T01:16:54.914Z,11.7
2022-09-25T01:18:11.216Z,12.5
2022-09-25T01:19:27.497Z,13.2
2022-09-25T01:20:43.807Z,13.6
2022-09-25T01:22:00.094Z,13.6
2022-09-25T01:23:16.397Z,13.3
2022-09-25T01:24:32.707Z,13.2
2022-09-25T01:25:48.976Z,13.3
2022-09-25T01:27:05.270Z,12.9
2022-09-25T01:28:21.568Z,12.4
2022-09-25T01:29:37.863Z,12.8
2022-09-25T01:30:53.175Z,13.3
2022-09-25T01:32:09.457Z,13.4
2022-09-25T01:33:25.764Z,12.5
2022-09-25T01:34:42.052Z,12.5
2022-09-25T01:35:58.344Z,13.1
2022-09-25T01:37:14.649Z,12.9
2022-09-25T01:38:30.927Z,13.6
2022-09-25T01:39:47.226Z,13.3
2022-09-25T01:41:03.527Z,12.1
2022-09-25T01:42:19.820Z,12.7
2022-09-25T01:43:36.105Z,12.4
2022-09-25T01:44:52.406Z,13
2022-09-25T01:46:08.686Z,12.7
2022-09-25T01:47:24.016Z,12.4
2022-09-25T01:48:40.299Z,12.6
2022-09-25T01:49:56.590Z,12.2
2022-09-25T01:51:12.886Z,11.9
2022-09-25T01:52:29.185Z,12.1
2022-09-25T01:53:45.479Z,12.4
2022-09-25T01:55:01.778Z,12
2022-09-25T01:56:18.071Z,11.8
2022-09-25T01:57:34.355Z,11.2
2022-09-25T01:58:50.651Z,11.6
2022-09-25T02:00:06.944Z,11.4
2022-09-25T02:01:23.233Z,12.1
2022-09-25T02:02:39.532Z,11.6
2022-09-25T02:03:54.000Z,11.4
2022-09-25T02:05:11.138Z,11.5
2022-09-25T02:06:27.439Z,10.7
2022-09-25T02:07:43.736Z,11.2
2022-09-25T02:09:00.011Z,11.3
2022-09-25T02:10:16.305Z,11.2
2022-09-25T02:11:32.599Z,11.2
2022-09-25T02:12:48.920Z,10.7
2022-09-25T02:14:05.202Z,11.1
2022-09-25T02:15:21.483Z,11
2022-09-25T02:16:37.780Z,11.5
2022-09-25T02:17:54.071Z,11.8
2022-09-25T02:19:10.362Z,11.1
2022-09-25T02:20:25.677Z,11.8
2022-09-25T02:21:41.965Z,11.3
2022-09-25T02:22:58.266Z,11.1
2022-09-25T02:24:14.565Z,11.2
2022-09-25T02:25:30.854Z,10.5
2022-09-25T02:26:47.156Z,10.9
2022-09-25T02:28:03.455Z,11
2022-09-25T02:29:19.743Z,11.1
2022-09-25T02:30:36.025Z,11.3
2022-09-25T02:31:52.331Z,10.5
2022-09-25T02:33:08.615Z,11.2
2022-09-25T02:34:24.907Z,11.2
2022-09-25T02:35:41.228Z,10.3
2022-09-25T02:36:56.509Z,10.4
2022-09-25T02:38:12.806Z,10.6
2022-09-25T02:39:29.109Z,10.5
2022-09-25T02:40:45.421Z,10.4
2022-09-25T02:42:01.690Z,11
2022-09-25T02:43:18.003Z,11.3
2022-09-25T02:44:34.293Z,10.8
2022-09-25T02:45:50.571Z,11.1
2022-09-25T02:47:06.869Z,11.2
2022-09-25T02:48:23.173Z,11
2022-09-25T02:49:39.461Z,12.1
2022-09-25T02:50:55.751Z,11.8
2022-09-25T02:52:12.059Z,11.4
2022-09-25T02:53:27.383Z,11.7
2022-09-25T02:54:43.647Z,11.2
2022-09-25T02:55:59.936Z,11
2022-09-25T02:57:16.236Z,11.2
2022-09-25T02:58:32.529Z,11.1
2022-09-25T02:59:48.819Z,11.7
2022-09-25T03:01:05.117Z,11.2
2022-09-25T03:02:21.416Z,11.8
2022-09-25T03:03:37.710Z,12.2
2022-09-25T03:04:54.011Z,12.4
2022-09-25T03:06:10.291Z,11.5
2022-09-25T03:07:26.587Z,11.6
2022-09-25T03:08:42.896Z,11.2
2022-09-25T03:09:58.186Z,11
2022-09-25T03:11:14.496Z,11.2
2022-09-25T03:12:30.784Z,11.3
2022-09-25T03:13:47.092Z,12.2
2022-09-25T03:15:03.375Z,11.5
2022-09-25T03:16:19.000Z,10.5
2022-09-25T03:17:35.967Z,11.4
2022-09-25T03:18:52.263Z,9.9
2022-09-25T03:20:08.558Z,10.7
2022-09-25T03:21:24.837Z,11.2
2022-09-25T03:22:41.134Z,11.6
2022-09-25T03:23:57.425Z,12.3
2022-09-25T03:25:13.724Z,11.4
2022-09-25T03:26:29.062Z,11.6
2022-09-25T03:27:45.318Z,12.3
2022-09-25T03:29:01.630Z,11.8
2022-09-25T03:30:17.926Z,12.5
2022-09-25T03:31:34.226Z,12.4
2022-09-25T03:32:50.499Z,12.5
2022-09-25T03:34:06.804Z,12.4
2022-09-25T03:35:23.082Z,13.3
2022-09-25T03:36:39.387Z,12.9
2022-09-25T03:37:55.675Z,12.2
2022-09-25T03:39:11.975Z,12.9
2022-09-25T03:40:28.267Z,12.5
2022-09-25T03:41:44.578Z,11.9
2022-09-25T03:42:59.882Z,12.3
2022-09-25T03:44:16.180Z,12.8
2022-09-25T03:45:32.466Z,12.9
2022-09-25T03:46:48.757Z,12.9
2022-09-25T03:48:05.052Z,12.9
2022-09-25T03:49:21.345Z,13
2022-09-25T03:50:37.641Z,13.3
2022-09-25T03:51:53.922Z,12.9
2022-09-25T03:53:10.232Z,12.2
2022-09-25T03:54:26.514Z,14.1
2022-09-25T03:55:42.811Z,12.4
2022-09-25T03:56:59.126Z,12.2
2022-09-25T03:58:15.400Z,12.2
2022-09-25T03:59:30.711Z,13.3
2022-09-25T04:00:47.012Z,12.6
2022-09-25T04:02:03.292Z,12.3
2022-09-25T04:03:19.600Z,12.4
2022-09-25T04:04:35.901Z,12.3
2022-09-25T04:05:52.179Z,12.7
2022-09-25T04:07:08.474Z,12.2
2022-09-25T04:08:24.771Z,11.9
2022-09-25T04:09:41.052Z,12.1
2022-09-25T04:10:57.353Z,12.5
2022-09-25T04:12:13.655Z,12.4
2022-09-25T04:13:29.938Z,12.1
2022-09-25T04:14:46.248Z,12.4
2022-09-25T04:16:01.546Z,12.8
2022-09-25T04:17:17.860Z,13
2022-09-25T04:18:34.146Z,12.3
2022-09-25T04:19:50.423Z,12.5
2022-09-25T04:21:06.715Z,13.1
2022-09-25T04:22:23.032Z,13.3
2022-09-25T04:23:39.305Z,12.5
2022-09-25T04:24:55.605Z,12.9
2022-09-25T04:26:11.892Z,12.7
2022-09-25T04:27:28.183Z,13.6
2022-09-25T04:28:44.479Z,12.7
2022-09-25T04:30:00.773Z,12.6
2022-09-25T04:31:17.076Z,13.7
2022-09-25T04:32:32.390Z,12.5
2022-09-25T04:33:48.669Z,12.2
2022-09-25T04:35:04.980Z,13.6
2022-09-25T04:36:21.207Z,14.1
2022-09-25T04:37:37.498Z,14.3
2022-09-25T04:38:53.805Z,14.1
2022-09-25T04:40:09.069Z,13.3
2022-09-25T04:41:25.307Z,13.1
2022-09-25T04:42:41.602Z,13.5
2022-09-25T04:43:57.912Z,14.2
2022-09-25T04:45:14.198Z,14.4
2022-09-25T04:46:30.500Z,14.3
2022-09-25T04:47:46.749Z,14.2
2022-09-25T04:49:03.042Z,14.8
2022-09-25T04:50:19.297Z,14.6
2022-09-25T04:51:35.523Z,15.1
2022-09-25T04:52:51.764Z,14.9
2022-09-25T04:54:08.006Z,13.6
2022-09-25T04:55:24.245Z,14
2022-09-25T04:56:39.497Z,14.4
2022-09-25T04:57:55.749Z,14.8
2022-09-25T04:59:11.982Z,14.4
2022-09-25T05:00:28.230Z,15.4
2022-09-25T05:01:44.460Z,15.3
2022-09-25T05:03:00.707Z,15.7
2022-09-25T05:04:16.934Z,15.5
2022-09-25T05:05:33.183Z,15.3
2022-09-25T05:06:49.420Z,15.5
2022-09-25T05:08:05.672Z,15.5
2022-09-25T05:09:21.905Z,15.2
2022-09-25T05:10:38.142Z,14.4
2022-09-25T05:11:54.380Z,15.2
2022-09-25T05:13:09.641Z,14.4
2022-09-25T05:14:25.884Z,14
2022-09-25T05:15:42.113Z,14.4
2022-09-25T05:16:58.361Z,14.4
2022-09-25T05:18:14.602Z,13.7
2022-09-25T05:19:30.842Z,13.6
2022-09-25T05:20:47.077Z,14.5
2022-09-25T05:22:03.323Z,13.3
2022-09-25T05:23:19.559Z,13.8
2022-09-25T05:24:35.804Z,13.5
2022-09-25T05:25:52.040Z,13.3
2022-09-25T05:27:08.281Z,14.1
2022-09-25T05:28:24.527Z,13.6
2022-09-25T05:29:39.778Z,13.4
2022-09-25T05:30:56.025Z,13.4
2022-09-25T05:32:12.249Z,14.7
2022-09-25T05:33:28.499Z,14.5
2022-09-25T05:34:44.733Z,15.8
2022-09-25T05:36:00.971Z,14.9
2022-09-25T05:37:17.228Z,14.3
2022-09-25T05:38:33.471Z,14.6
2022-09-25T05:39:49.702Z,14.6
2022-09-25T05:41:05.944Z,14.9
2022-09-25T05:42:22.185Z,14.5
2022-09-25T05:43:38.419Z,14.8
2022-09-25T05:44:54.664Z,14.5
2022-09-25T05:46:09.915Z,15.2
2022-09-25T05:47:26.162Z,15
2022-09-25T05:48:42.393Z,13.7
2022-09-25T05:49:58.633Z,14.1
2022-09-25T05:51:14.885Z,14.8
2022-09-25T05:52:31.116Z,14.8
2022-09-25T05:53:47.362Z,14.6
2022-09-25T05:55:03.593Z,14.8
2022-09-25T05:56:19.845Z,14.5
2022-09-25T05:57:36.076Z,14.3
2022-09-25T05:58:52.311Z,14.1
2022-09-25T06:00:08.553Z,15
2022-09-25T06:01:24.801Z,14.8
2022-09-25T06:02:40.050Z,15.3
2022-09-25T06:03:56.297Z,14.4
2022-09-25T06:05:12.526Z,15.6
2022-09-25T06:06:28.770Z,15.4
2022-09-25T06:07:45.003Z,14.5
2022-09-25T06:09:01.252Z,15.2
2022-09-25T06:10:17.488Z,15
2022-09-25T06:11:33.722Z,15.3
2022-09-25T06:12:49.975Z,14.8
2022-09-25T06:14:06.219Z,15.3
2022-09-25T06:15:22.453Z,15
2022-09-25T06:16:38.691Z,15.1
2022-09-25T06:17:54.924Z,15.1
2022-09-25T06:19:10.195Z,15.7
2022-09-25T06:20:26.424Z,16.4
2022-09-25T06:21:42.674Z,15.4
2022-09-25T06:22:58.912Z,16.5
2022-09-25T06:24:15.151Z,16.1
2022-09-25T06:25:31.395Z,17
2022-09-25T06:26:47.620Z,17.3
2022-09-25T06:28:03.861Z,17.4
2022-09-25T06:29:20.106Z,17.1
2022-09-25T06:30:36.355Z,16.9
2022-09-25T06:31:52.589Z,16.8
2022-09-25T06:33:08.817Z,17.2
2022-09-25T06:34:25.074Z,16.5
2022-09-25T06:35:40.331Z,16.6
2022-09-25T06:36:56.558Z,16.8
2022-09-25T06:38:12.796Z,17.4
2022-09-25T06:39:29.042Z,17.6
2022-09-25T06:40:45.271Z,18.3
2022-09-25T06:42:01.514Z,16.6
2022-09-25T06:43:17.767Z,17.6
2022-09-25T06:44:34.001Z,17
2022-09-25T06:45:50.229Z,19.1
2022-09-25T06:47:06.474Z,18.1
2022-09-25T06:48:22.732Z,17.8
2022-09-25T06:49:38.964Z,17.7
2022-09-25T06:50:55.190Z,17.9
2022-09-25T06:52:10.449Z,17.9
2022-09-25T06:53:26.686Z,17.8
2022-09-25T06:54:42.932Z,18.2
2022-09-25T06:55:59.176Z,17.6
2022-09-25T06:57:15.412Z,17.2
2022-09-25T06:58:31.650Z,18
2022-09-25T06:59:47.889Z,17.9
2022-09-25T07:01:04.140Z,17.8
2022-09-25T07:02:20.365Z,17.6
2022-09-25T07:03:36.605Z,17.9
2022-09-25T07:04:52.850Z,18.2
2022-09-25T07:06:09.089Z,17.5
2022-09-25T07:07:25.324Z,18.3
2022-09-25T07:08:40.593Z,18.1
2022-09-25T07:09:56.826Z,18.4
2022-09-25T07:11:13.068Z,17.7
2022-09-25T07:12:29.310Z,17.7
2022-09-25T07:13:45.535Z,17.8
2022-09-25T07:15:01.779Z,18.6
2022-09-25T07:16:18.020Z,17.8
2022-09-25T07:17:34.268Z,17.6
2022-09-25T07:18:50.508Z,18.5
2022-09-25T07:20:06.743Z,19
2022-09-25T07:21:22.973Z,18.4
2022-09-25T07:22:39.217Z,17.6
2022-09-25T07:23:55.464Z,19.3
2022-09-25T07:25:10.711Z,18.5
2022-09-25T07:26:26.945Z,19.5
2022-09-25T07:27:43.197Z,19.9
2022-09-25T07:28:59.431Z,20.1
2022-09-25T07:30:15.673Z,19
2022-09-25T07:31:31.907Z,20.1
2022-09-25T07:32:48.154Z,19.5
2022-09-25T07:34:04.391Z,19.5
2022-09-25T07:35:20.622Z,19.1
2022-09-25T07:36:36.879Z,19
2022-09-25T07:37:53.106Z,18.4
2022-09-25T07:40:25.597Z,19.5
2022-09-25T07:41:40.851Z,20.3
2022-09-25T07:42:57.088Z,18.9
2022-09-25T07:44:13.321Z,20
2022-09-25T07:45:29.553Z,18.5
2022-09-25T07:46:45.796Z,19.3
2022-09-25T07:48:02.029Z,18.8
2022-09-25T07:49:18.283Z,18.4
2022-09-25T07:50:34.521Z,18.9
2022-09-25T07:51:50.762Z,18.6
2022-09-25T07:53:06.997Z,18.5
2022-09-25T07:54:23.222Z,17.7
2022-09-25T07:55:39.469Z,18.1
2022-09-25T07:56:55.701Z,18.1
2022-09-25T07:58:10.956Z,17.6
2022-09-25T07:59:27.200Z,18.7
2022-09-25T08:00:43.441Z,18.9
2022-09-25T08:01:59.680Z,18.4
2022-09-25T08:03:15.917Z,18.4
2022-09-25T08:04:32.161Z,18
2022-09-25T08:05:48.402Z,19.3
2022-09-25T08:07:04.640Z,18.8
2022-09-25T08:08:20.868Z,18.6
2022-09-25T08:09:37.119Z,18
2022-09-25T08:10:53.350Z,18.2
2022-09-25T08:12:09.600Z,17.7
2022-09-25T08:13:25.834Z,18
2022-09-25T08:14:41.085Z,16.9
2022-09-25T08:15:57.325Z,16.4
2022-09-25T08:17:13.568Z,17.7
2022-09-25T08:18:29.796Z,16.9
2022-09-25T08:19:46.039Z,17.9
2022-09-25T08:21:02.283Z,17.4
2022-09-25T08:22:18.525Z,17.5
2022-09-25T08:23:34.764Z,16.6
2022-09-25T08:24:50.997Z,18.7
2022-09-25T08:26:07.233Z,16.5
2022-09-25T08:27:23.483Z,17.1
2022-09-25T08:28:39.709Z,17.3
2022-09-25T08:29:55.966Z,17
2022-09-25T08:31:11.201Z,17.9
2022-09-25T08:32:27.458Z,17.5
2022-09-25T08:33:43.688Z,16.6
2022-09-25T08:34:59.920Z,16.8
2022-09-25T08:36:16.164Z,17.1
2022-09-25T08:37:32.409Z,17.5
2022-09-25T08:38:48.644Z,16.4
2022-09-25T08:41:21.126Z,16.3
2022-09-25T08:42:37.374Z,16.4
2022-09-25T08:43:53.598Z,17
2022-09-25T08:45:09.842Z,16.9
2022-09-25T08:46:26.087Z,17
2022-09-25T08:47:41.335Z,17.3
2022-09-25T08:48:57.569Z,17.9
2022-09-25T08:50:13.811Z,16.3
2022-09-25T08:51:30.042Z,16.9
2022-09-25T08:52:46.296Z,17.5
2022-09-25T08:54:02.538Z,16.5
2022-09-25T08:55:17.797Z,16.4
2022-09-25T08:56:34.032Z,16.3
2022-09-25T08:57:50.279Z,16.9
2022-09-25T08:59:06.506Z,16.2
2022-09-25T09:00:22.752Z,16.8
2022-09-25T09:01:38.992Z,16.7
2022-09-25T09:02:55.228Z,16.1
2022-09-25T09:04:11.469Z,17.4
2022-09-25T09:05:27.713Z,16.7
2022-09-25T09:06:43.933Z,16.3
2022-09-25T09:08:00.179Z,16.2
2022-09-25T09:09:16.420Z,15.6
2022-09-25T09:10:32.652Z,16
2022-09-25T09:11:47.909Z,16.9
2022-09-25T09:13:04.148Z,16.7
2022-09-25T09:14:20.394Z,17.2
2022-09-25T09:15:36.635Z,16.3
2022-09-25T09:16:52.868Z,16.8
2022-09-25T09:18:09.110Z,16.1
2022-09-25T09:19:25.349Z,15.8
2022-09-25T09:20:41.575Z,17.1
2022-09-25T09:21:57.815Z,16.7
2022-09-25T09:23:14.061Z,16.5
2022-09-25T09:24:30.296Z,16.9
2022-09-25T09:25:46.540Z,15.4
2022-09-25T09:27:02.790Z,15.9
2022-09-25T09:28:18.030Z,16.1
2022-09-25T09:29:34.265Z,16.1
2022-09-25T09:30:50.508Z,16.2
2022-09-25T09:32:06.733Z,16.1
2022-09-25T09:33:22.985Z,16.3
2022-09-25T09:34:39.216Z,16.2
2022-09-25T09:35:55.453Z,14.7
2022-09-25T09:37:11.697Z,15
2022-09-25T09:38:27.930Z,14.2
2022-09-25T09:39:44.174Z,15.1
2022-09-25T09:41:00.413Z,15.2
2022-09-25T09:42:16.642Z,14.7
2022-09-25T09:43:32.897Z,15
2022-09-25T09:44:48.140Z,15.3
2022-09-25T09:46:04.399Z,14.4
2022-09-25T09:47:20.616Z,13.9
2022-09-25T09:48:36.864Z,13.9
2022-09-25T09:49:53.106Z,14.2
2022-09-25T09:51:09.345Z,13.1
2022-09-25T09:52:25.573Z,13.5
2022-09-25T09:53:41.807Z,13.1
2022-09-25T09:54:58.055Z,12.7
2022-09-25T09:56:14.301Z,12.7
2022-09-25T09:57:30.540Z,13.4
2022-09-25T09:58:46.759Z,14.8
2022-09-25T10:00:02.999Z,16.5
2022-09-25T10:01:18.263Z,13.6
2022-09-25T10:02:34.495Z,13.6
2022-09-25T10:03:50.748Z,12.5
2022-09-25T10:05:06.969Z,12.2
2022-09-25T10:06:23.218Z,11.5
2022-09-25T10:07:39.464Z,11.4
2022-09-25T10:08:55.691Z,11.3
2022-09-25T10:10:11.930Z,11.7
2022-09-25T10:11:28.168Z,12.3
2022-09-25T10:12:44.410Z,12
2022-09-25T10:14:00.661Z,12.2
2022-09-25T10:15:16.888Z,11.7
2022-09-25T10:16:33.137Z,13.4
2022-09-25T10:17:48.391Z,11.6
2022-09-25T10:19:04.623Z,15.3
2022-09-25T10:20:20.862Z,13.6
2022-09-25T10:21:37.100Z,11.7
2022-09-25T10:22:53.350Z,11.1
2022-09-25T10:24:09.583Z,12.1
2022-09-25T10:25:25.829Z,11.4
2022-09-25T10:26:42.066Z,12.2
2022-09-25T10:27:58.314Z,11.6
2022-09-25T10:29:14.545Z,13.8
2022-09-25T10:30:30.774Z,11.7
2022-09-25T10:31:47.028Z,12.4
2022-09-25T10:33:03.261Z,12.1
2022-09-25T10:34:18.510Z,12.1
2022-09-25T10:35:34.748Z,11.3
2022-09-25T10:36:50.997Z,11.6
2022-09-25T10:38:07.242Z,10.9
2022-09-25T10:39:23.478Z,10.9
2022-09-25T10:40:39.714Z,11.1
2022-09-25T10:41:55.966Z,10.7
2022-09-25T10:43:12.196Z,21.5
2022-09-25T10:44:28.450Z,11.1
2022-09-25T10:45:44.672Z,11.3
2022-09-25T10:47:00.913Z,11.1
2022-09-25T10:48:17.165Z,11.1
2022-09-25T10:49:33.407Z,13.2
2022-09-25T10:50:48.667Z,12.7
2022-09-25T10:52:04.900Z,10.9
2022-09-25T10:53:21.143Z,10.4
2022-09-25T10:54:37.367Z,10.9
2022-09-25T10:55:53.625Z,9.7
2022-09-25T10:57:09.856Z,11
2022-09-25T10:58:26.090Z,11.1
2022-09-25T10:59:42.341Z,11.3
2022-09-25T11:00:58.578Z,10.4
2022-09-25T11:02:14.819Z,11.9
2022-09-25T11:03:31.057Z,10.8
2022-09-25T11:04:47.293Z,11.1
2022-09-25T11:06:03.521Z,14.2
2022-09-25T11:07:18.782Z,11.7
2022-09-25T11:08:35.035Z,11.7
2022-09-25T11:09:51.262Z,11.1
2022-09-25T11:11:07.511Z,11.5
2022-09-25T11:12:23.735Z,10.6
2022-09-25T11:13:39.984Z,10.5
2022-09-25T11:14:56.216Z,11.3
2022-09-25T11:16:12.455Z,11.2
2022-09-25T11:17:28.699Z,12
2022-09-25T11:18:44.939Z,12.5
2022-09-25T11:20:01.173Z,12.8
2022-09-25T11:21:17.428Z,12.8
2022-09-25T11:22:33.667Z,13.5
2022-09-25T11:23:48.920Z,11.6
2022-09-25T11:25:05.144Z,12.1
2022-09-25T11:26:21.388Z,12
2022-09-25T11:27:37.637Z,11
2022-09-25T11:28:53.866Z,10.3
2022-09-25T11:30:10.107Z,11.7
2022-09-25T11:31:26.337Z,10.8
2022-09-25T11:32:42.576Z,11.6
2022-09-25T11:33:58.820Z,12.9
2022-09-25T11:35:15.067Z,11.4
2022-09-25T11:36:31.303Z,11.2
2022-09-25T11:37:47.535Z,10.3
2022-09-25T11:39:03.787Z,10.8
2022-09-25T11:40:19.046Z,10.1
2022-09-25T11:41:35.277Z,10.4
2022-09-25T11:42:51.516Z,10.6
2022-09-25T11:44:07.760Z,11.2
2022-09-25T11:45:24.002Z,10.9
2022-09-25T11:46:40.225Z,10.2
2022-09-25T11:47:56.480Z,10.7
2022-09-25T11:49:12.716Z,10.3
2022-09-25T11:50:28.953Z,10.7
2022-09-25T11:51:45.187Z,10.5
2022-09-25T11:53:01.437Z,10.2
2022-09-25T11:54:17.665Z,9.8
2022-09-25T11:55:33.899Z,10.6
2022-09-25T11:56:49.160Z,10.3
2022-09-25T11:58:05.398Z,10.8
2022-09-25T11:59:21.650Z,9.6
2022-09-25T12:00:37.875Z,9.4
2022-09-25T12:01:54.130Z,9.6
2022-09-25T12:03:10.349Z,9.7
2022-09-25T12:04:26.593Z,10.2
2022-09-25T12:05:42.826Z,10
2022-09-25T12:06:59.077Z,9.4
2022-09-25T12:08:15.307Z,10
2022-09-25T12:09:31.549Z,14.2
2022-09-25T12:10:47.784Z,10.4
2022-09-25T12:12:04.024Z,10.4
2022-09-25T12:13:19.000Z,10.5
2022-09-25T12:14:35.512Z,9.2
2022-09-25T12:15:51.771Z,9.4
2022-09-25T12:17:07.999Z,10.5
2022-09-25T12:18:24.231Z,10.8
2022-09-25T12:19:40.482Z,10
2022-09-25T12:20:56.706Z,10.1
2022-09-25T12:22:12.964Z,10.8
2022-09-25T12:23:29.197Z,10.8
2022-09-25T12:24:45.445Z,9.4
2022-09-25T12:26:01.670Z,9.9
2022-09-25T12:27:17.913Z,10.1
2022-09-25T12:28:34.146Z,11.3
2022-09-25T12:29:49.392Z,10.9
2022-09-25T12:31:05.640Z,11
2022-09-25T12:32:21.867Z,10.6
2022-09-25T12:33:38.000Z,10.4
2022-09-25T12:34:54.349Z,10.6
2022-09-25T12:36:10.597Z,10.2
2022-09-25T12:37:26.834Z,10.4
2022-09-25T12:38:43.069Z,11.5
2022-09-25T12:39:59.299Z,10.4
2022-09-25T12:41:15.536Z,10.7
2022-09-25T12:42:31.795Z,10.8
2022-09-25T12:43:48.026Z,11.1
2022-09-25T12:45:04.250Z,11.5
2022-09-25T12:46:19.508Z,10.6
2022-09-25T12:47:35.768Z,10.7
2022-09-25T12:48:51.988Z,10
2022-09-25T12:50:08.239Z,9.2
2022-09-25T12:51:24.465Z,9.4
2022-09-25T12:52:40.711Z,10.3
2022-09-25T12:53:56.948Z,10.5
2022-09-25T12:55:13.174Z,10.6
2022-09-25T12:56:29.428Z,11.8
2022-09-25T12:57:45.649Z,11.3
2022-09-25T12:59:01.906Z,10.9
2022-09-25T13:00:18.138Z,10.2
2022-09-25T13:01:34.382Z,10.9
2022-09-25T13:02:49.627Z,10.1
2022-09-25T13:04:05.861Z,9.8
2022-09-25T13:05:22.102Z,9.8
2022-09-25T13:06:38.352Z,9.4
2022-09-25T13:07:54.586Z,10
2022-09-25T13:09:10.817Z,9.4
2022-09-25T13:10:26.092Z,9
2022-09-25T13:11:42.318Z,10.2
2022-09-25T13:12:58.557Z,9.3
2022-09-25T13:14:14.809Z,9.4
2022-09-25T13:15:31.031Z,10.6
2022-09-25T13:16:47.268Z,9.3
2022-09-25T13:18:03.506Z,9.9
2022-09-25T13:19:19.752Z,9.5
2022-09-25T13:20:35.999Z,10.1
2022-09-25T13:21:52.222Z,9.4
2022-09-25T13:23:08.468Z,10.8
2022-09-25T13:24:24.706Z,9.2
2022-09-25T13:25:40.940Z,9.9
2022-09-25T13:26:56.213Z,9.4
2022-09-25T13:28:12.449Z,9.6
2022-09-25T13:29:28.677Z,9
2022-09-25T13:30:44.920Z,9.1
2022-09-25T13:32:01.167Z,8.6
2022-09-25T13:33:17.395Z,9.6
2022-09-25T13:34:33.641Z,10.6
2022-09-25T13:35:49.880Z,10.5
2022-09-25T13:37:06.108Z,9.9
2022-09-25T13:38:22.337Z,9.9
2022-09-25T13:39:38.583Z,9.3
2022-09-25T13:40:54.816Z,8.6
2022-09-25T13:42:11.065Z,8.6
2022-09-25T13:43:26.320Z,9.1
2022-09-25T13:44:42.549Z,9.1
2022-09-25T13:45:58.796Z,10.2
2022-09-25T13:47:15.027Z,9.2
2022-09-25T13:48:31.275Z,9.4
2022-09-25T13:49:47.502Z,9
2022-09-25T13:51:03.748Z,9.6
2022-09-25T13:52:19.981Z,9.3
2022-09-25T13:53:36.209Z,8.6
2022-09-25T13:54:52.464Z,8.8
2022-09-25T13:56:08.703Z,8.3
2022-09-25T13:57:24.936Z,8.2
2022-09-25T13:58:41.173Z,7.9
2022-09-25T13:59:56.420Z,7.7
2022-09-25T14:01:12.673Z,7.8
2022-09-25T14:02:28.906Z,7.9
2022-09-25T14:03:45.149Z,8.8
2022-09-25T14:05:01.377Z,7.9
2022-09-25T14:06:17.613Z,8.2
2022-09-25T14:07:33.865Z,9.1
2022-09-25T14:08:50.086Z,9.1
2022-09-25T14:10:06.340Z,7.9
2022-09-25T14:11:22.566Z,8.1
2022-09-25T14:12:38.802Z,7.3
2022-09-25T14:13:55.046Z,6.3
2022-09-25T14:15:11.284Z,6.9
2022-09-25T14:16:26.540Z,7.4
2022-09-25T14:17:42.769Z,7
2022-09-25T14:18:59.004Z,8.6
2022-09-25T14:20:15.260Z,8.4
2022-09-25T14:21:31.000Z,7.6
2022-09-25T14:22:47.721Z,7.4
2022-09-25T14:24:03.956Z,6.5
2022-09-25T14:25:20.204Z,6.3
2022-09-25T14:26:36.457Z,6.9
2022-09-25T14:27:52.673Z,6.4
2022-09-25T14:29:08.919Z,5.7
2022-09-25T14:30:25.145Z,5.6
2022-09-25T14:31:41.396Z,6.1
2022-09-25T14:32:56.655Z,6.5
2022-09-25T14:34:12.882Z,6.8
2022-09-25T14:35:29.114Z,6.7
2022-09-25T14:36:45.362Z,6.7
2022-09-25T14:38:01.594Z,7.9
2022-09-25T14:39:17.832Z,6.8
2022-09-25T14:40:34.068Z,7.2
2022-09-25T14:41:50.306Z,8
2022-09-25T14:43:06.548Z,7.5
2022-09-25T14:44:22.791Z,6.9
2022-09-25T14:45:39.032Z,7.7
2022-09-25T14:46:55.267Z,7.3
2022-09-25T14:48:11.517Z,6.5
2022-09-25T14:49:26.775Z,7.2
2022-09-25T14:50:42.000Z,7.4
2022-09-25T14:51:59.249Z,5.7
2022-09-25T14:53:15.470Z,6.3
2022-09-25T14:54:31.723Z,6.3
2022-09-25T14:55:47.956Z,6.8
2022-09-25T14:57:04.193Z,6.7
2022-09-25T14:58:20.428Z,6.4
2022-09-25T14:59:36.658Z,6.2
2022-09-25T15:00:52.910Z,6.4
2022-09-25T15:02:09.152Z,6.9
2022-09-25T15:03:25.383Z,6.3
2022-09-25T15:04:41.621Z,6.8
2022-09-25T15:05:56.864Z,5.9
2022-09-25T15:07:13.120Z,6.2
2022-09-25T15:08:29.360Z,6.6
2022-09-25T15:09:45.594Z,6.6
2022-09-25T15:11:01.823Z,6.1
2022-09-25T15:12:18.073Z,5.9
2022-09-25T15:13:34.311Z,6.3
2022-09-25T15:14:50.542Z,6
2022-09-25T15:16:06.777Z,5.6
2022-09-25T15:17:23.019Z,6.4
2022-09-25T15:18:39.271Z,5.7
2022-09-25T15:19:55.519Z,6.1
2022-09-25T15:21:11.737Z,6.5
2022-09-25T15:22:26.999Z,6.1
2022-09-25T15:23:43.240Z,5.9
2022-09-25T15:24:59.480Z,5.4
2022-09-25T15:26:15.703Z,5.4
2022-09-25T15:27:31.948Z,4.9
2022-09-25T15:28:48.184Z,4.7
2022-09-25T15:30:04.425Z,5.3
2022-09-25T15:31:20.678Z,4.9
2022-09-25T15:32:36.913Z,5.5
2022-09-25T15:33:53.143Z,5.1
2022-09-25T15:35:09.387Z,5.8
2022-09-25T15:36:25.631Z,5.3
2022-09-25T15:37:41.864Z,5.4
2022-09-25T15:38:57.130Z,4.9
2022-09-25T15:40:13.366Z,4.9
2022-09-25T15:41:29.610Z,4.4
2022-09-25T15:42:45.846Z,4.5
2022-09-25T15:44:02.078Z,4.6
2022-09-25T15:45:18.320Z,4.7
2022-09-25T15:46:34.549Z,4.4
2022-09-25T15:47:50.799Z,4.8
2022-09-25T15:49:07.031Z,4.3
2022-09-25T15:50:23.282Z,4.4
2022-09-25T15:51:39.510Z,4.8
2022-09-25T15:52:55.762Z,4.1
2022-09-25T15:54:12.004Z,4.4
2022-09-25T15:55:27.260Z,4.1
2022-09-25T15:56:43.499Z,4.1
2022-09-25T15:57:59.737Z,4.1
2022-09-25T15:59:15.967Z,4.8
2022-09-25T16:00:32.216Z,4.2
2022-09-25T16:01:48.452Z,3.8
2022-09-25T16:03:04.696Z,4.1
2022-09-25T16:04:20.941Z,4.2
2022-09-25T16:05:37.178Z,4.5
2022-09-25T16:06:53.413Z,5
2022-09-25T16:08:09.649Z,4.3
2022-09-25T16:09:25.900Z,4.3
2022-09-25T16:10:42.141Z,4.7
2022-09-25T16:11:57.383Z,4.6
2022-09-25T16:13:13.640Z,4.7
2022-09-25T16:14:29.872Z,5.1
2022-09-25T16:15:46.119Z,4.3
2022-09-25T16:17:02.345Z,4.5
2022-09-25T16:18:18.601Z,4.5
2022-09-25T16:19:34.838Z,5.6
2022-09-25T16:20:51.089Z,6.1
2022-09-25T16:22:07.319Z,6.7
2022-09-25T16:23:23.554Z,11.3
2022-09-25T16:24:39.790Z,8.8
2022-09-25T16:25:56.044Z,11.5
2022-09-25T16:27:12.274Z,6.8
2022-09-25T16:28:27.532Z,6.3
2022-09-25T16:29:43.774Z,5.6
2022-09-25T16:31:00.015Z,6.6
2022-09-25T16:32:16.242Z,6.3
2022-09-25T16:33:32.492Z,5.7
2022-09-25T16:34:48.742Z,6.1
2022-09-25T16:36:04.983Z,6.1
2022-09-25T16:37:21.206Z,5.9
2022-09-25T16:38:37.460Z,5.6
2022-09-25T16:39:53.690Z,6.5
2022-09-25T16:41:09.930Z,6.4
2022-09-25T16:42:26.166Z,7.1
2022-09-25T16:43:42.420Z,6.3
2022-09-25T16:44:57.664Z,12.3
2022-09-25T16:46:13.905Z,7.8
2022-09-25T16:47:30.139Z,15
2022-09-25T16:48:46.393Z,11.8
2022-09-25T16:50:02.634Z,10.1
2022-09-25T16:51:18.874Z,6.6
2022-09-25T16:52:35.100Z,6.1
2022-09-25T16:53:51.347Z,6.2
2022-09-25T16:55:07.000Z,6.3
2022-09-25T16:56:23.817Z,5.8
2022-09-25T16:57:40.073Z,5.3
2022-09-25T16:58:56.322Z,5.6
2022-09-25T17:00:12.552Z,5.3
2022-09-25T17:01:28.791Z,5.3
2022-09-25T17:02:44.039Z,5.5
2022-09-25T17:04:00.280Z,5.7
2022-09-25T17:05:16.504Z,6.3
2022-09-25T17:06:32.750Z,7.1
2022-09-25T17:07:48.995Z,7.8
2022-09-25T17:09:05.244Z,6.4